sensor_id;sensor_type;location;lat;lon;timestamp;temperature;humidity
22765;DHT22;11549;50.852;3.816;2023-07-22T00:00:49;16.80;99.90
22765;DHT22;11549;50.852;3.816;2023-07-22T00:03:18;16.80;99.90
22765;DHT22;11549;50.852;3.816;2023-07-22T00:05:48;16.80;99.90
22765;DHT22;11549;50.852;3.816;2023-07-22T00:08:17;16.80;99.90
22765;DHT22;11549;50.852;3.816;2023-07-22T00:10:45;16.80;99.90
22765;DHT22;11549;50.852;3.816;2023-07-22T00:13:13;16.70;99.90
22765;DHT22;11549;50.852;3.816;2023-07-22T00:15:42;16.70;99.90
22765;DHT22;11549;50.852;3.816;2023-07-22T00:18:10;16.80;99.90
22765;DHT22;11549;50.852;3.816;2023-07-22T00:20:39;16.70;99.90
22765;DHT22;11549;50.852;3.816;2023-07-22T00:23:09;16.60;99.90
22765;DHT22;11549;50.852;3.816;2023-07-22T00:25:37;16.70;99.90
22765;DHT22;11549;50.852;3.816;2023-07-22T00:28:06;16.60;99.90
22765;DHT22;11549;50.852;3.816;2023-07-22T00:30:34;16.60;99.90
22765;DHT22;11549;50.852;3.816;2023-07-22T00:33:04;16.70;99.90
22765;DHT22;11549;50.852;3.816;2023-07-22T00:35:33;16.70;99.90
22765;DHT22;11549;50.852;3.816;2023-07-22T00:38:01;16.70;99.90
22765;DHT22;11549;50.852;3.816;2023-07-22T00:40:32;16.60;99.90
22765;DHT22;11549;50.852;3.816;2023-07-22T00:43:00;16.70;99.90
22765;DHT22;11549;50.852;3.816;2023-07-22T00:45:29;16.60;99.90
22765;DHT22;11549;50.852;3.816;2023-07-22T00:47:57;16.60;99.90
22765;DHT22;11549;50.852;3.816;2023-07-22T00:50:26;16.60;99.90
22765;DHT22;11549;50.852;3.816;2023-07-22T00:52:55;16.60;99.90
22765;DHT22;11549;50.852;3.816;2023-07-22T00:55:23;16.50;99.90
22765;DHT22;11549;50.852;3.816;2023-07-22T00:57:55;16.60;99.90
22765;DHT22;11549;50.852;3.816;2023-07-22T01:00:23;16.70;99.90
22765;DHT22;11549;50.852;3.816;2023-07-22T01:02:52;16.60;99.90
22765;DHT22;11549;50.852;3.816;2023-07-22T01:05:20;16.70;99.90
22765;DHT22;11549;50.852;3.816;2023-07-22T01:07:49;16.60;99.90
22765;DHT22;11549;50.852;3.816;2023-07-22T01:10:18;16.60;99.90
22765;DHT22;11549;50.852;3.816;2023-07-22T01:12:47;16.60;99.90
22765;DHT22;11549;50.852;3.816;2023-07-22T01:15:17;16.70;99.90
22765;DHT22;11549;50.852;3.816;2023-07-22T01:17:45;16.60;99.90
22765;DHT22;11549;50.852;3.816;2023-07-22T01:20:14;16.60;99.90
22765;DHT22;11549;50.852;3.816;2023-07-22T01:22:51;16.50;99.90
22765;DHT22;11549;50.852;3.816;2023-07-22T01:25:20;16.40;99.90
22765;DHT22;11549;50.852;3.816;2023-07-22T01:27:50;16.50;99.90
22765;DHT22;11549;50.852;3.816;2023-07-22T01:30:19;16.40;99.90
22765;DHT22;11549;50.852;3.816;2023-07-22T01:32:47;16.50;99.90
22765;DHT22;11549;50.852;3.816;2023-07-22T01:35:18;16.50;99.90
22765;DHT22;11549;50.852;3.816;2023-07-22T01:37:46;16.60;99.90
22765;DHT22;11549;50.852;3.816;2023-07-22T01:40:16;16.60;99.90
22765;DHT22;11549;50.852;3.816;2023-07-22T01:42:45;16.60;99.90
22765;DHT22;11549;50.852;3.816;2023-07-22T01:45:14;16.50;99.90
22765;DHT22;11549;50.852;3.816;2023-07-22T01:47:42;16.50;99.90
22765;DHT22;11549;50.852;3.816;2023-07-22T01:50:11;16.50;99.90
22765;DHT22;11549;50.852;3.816;2023-07-22T01:52:39;16.50;99.90
22765;DHT22;11549;50.852;3.816;2023-07-22T01:55:08;16.40;99.90
22765;DHT22;11549;50.852;3.816;2023-07-22T01:57:39;16.30;99.90
22765;DHT22;11549;50.852;3.816;2023-07-22T02:00:08;16.40;99.90
22765;DHT22;11549;50.852;3.816;2023-07-22T02:02:38;16.40;99.90
22765;DHT22;11549;50.852;3.816;2023-07-22T02:05:07;16.40;99.90
22765;DHT22;11549;50.852;3.816;2023-07-22T02:07:37;16.40;99.90
22765;DHT22;11549;50.852;3.816;2023-07-22T02:10:06;16.40;99.90
22765;DHT22;11549;50.852;3.816;2023-07-22T02:12:36;16.40;99.90
22765;DHT22;11549;50.852;3.816;2023-07-22T02:15:07;16.40;99.90
22765;DHT22;11549;50.852;3.816;2023-07-22T02:17:36;16.40;99.90
22765;DHT22;11549;50.852;3.816;2023-07-22T02:20:05;16.60;99.90
22765;DHT22;11549;50.852;3.816;2023-07-22T02:22:35;16.50;99.90
22765;DHT22;11549;50.852;3.816;2023-07-22T02:25:05;16.50;99.90
22765;DHT22;11549;50.852;3.816;2023-07-22T02:27:34;16.50;99.90
22765;DHT22;11549;50.852;3.816;2023-07-22T02:30:03;16.50;99.90
22765;DHT22;11549;50.852;3.816;2023-07-22T02:32:33;16.50;99.90
22765;DHT22;11549;50.852;3.816;2023-07-22T02:35:02;16.40;99.90
22765;DHT22;11549;50.852;3.816;2023-07-22T02:37:30;16.30;99.90
22765;DHT22;11549;50.852;3.816;2023-07-22T02:39:58;16.30;99.90
22765;DHT22;11549;50.852;3.816;2023-07-22T02:42:27;16.20;99.90
22765;DHT22;11549;50.852;3.816;2023-07-22T02:44:55;16.10;99.90
22765;DHT22;11549;50.852;3.816;2023-07-22T02:47:23;16.10;99.90
22765;DHT22;11549;50.852;3.816;2023-07-22T02:49:53;16.10;99.90
22765;DHT22;11549;50.852;3.816;2023-07-22T02:52:22;16.20;99.90
22765;DHT22;11549;50.852;3.816;2023-07-22T02:55:05;16.10;99.90
22765;DHT22;11549;50.852;3.816;2023-07-22T02:57:34;16.10;99.90
22765;DHT22;11549;50.852;3.816;2023-07-22T03:00:03;15.90;99.90
22765;DHT22;11549;50.852;3.816;2023-07-22T03:02:34;15.80;99.90
22765;DHT22;11549;50.852;3.816;2023-07-22T03:05:06;15.50;99.90
22765;DHT22;11549;50.852;3.816;2023-07-22T03:07:36;15.50;99.90
22765;DHT22;11549;50.852;3.816;2023-07-22T03:10:05;15.30;99.90
22765;DHT22;11549;50.852;3.816;2023-07-22T03:12:34;15.10;99.90
22765;DHT22;11549;50.852;3.816;2023-07-22T03:15:04;15.20;99.90
22765;DHT22;11549;50.852;3.816;2023-07-22T03:17:36;15.00;99.90
22765;DHT22;11549;50.852;3.816;2023-07-22T03:20:07;14.90;99.90
22765;DHT22;11549;50.852;3.816;2023-07-22T03:22:40;15.00;99.90
22765;DHT22;11549;50.852;3.816;2023-07-22T03:25:09;14.70;99.90
22765;DHT22;11549;50.852;3.816;2023-07-22T03:27:37;14.60;99.90
22765;DHT22;11549;50.852;3.816;2023-07-22T03:30:07;14.60;99.90
22765;DHT22;11549;50.852;3.816;2023-07-22T03:32:37;14.50;99.90
22765;DHT22;11549;50.852;3.816;2023-07-22T03:35:08;14.50;99.90
22765;DHT22;11549;50.852;3.816;2023-07-22T03:37:39;14.50;99.90
22765;DHT22;11549;50.852;3.816;2023-07-22T03:40:08;14.50;99.90
22765;DHT22;11549;50.852;3.816;2023-07-22T03:42:41;14.60;99.90
22765;DHT22;11549;50.852;3.816;2023-07-22T03:45:09;14.80;99.90
22765;DHT22;11549;50.852;3.816;2023-07-22T03:47:38;14.80;99.90
22765;DHT22;11549;50.852;3.816;2023-07-22T03:50:09;14.80;99.90
22765;DHT22;11549;50.852;3.816;2023-07-22T03:52:37;14.80;99.90
22765;DHT22;11549;50.852;3.816;2023-07-22T03:55:06;15.00;99.90
22765;DHT22;11549;50.852;3.816;2023-07-22T03:57:35;15.00;99.90
22765;DHT22;11549;50.852;3.816;2023-07-22T04:00:04;15.10;99.90
22765;DHT22;11549;50.852;3.816;2023-07-22T04:02:32;15.10;99.90
22765;DHT22;11549;50.852;3.816;2023-07-22T04:05:01;15.10;99.90
22765;DHT22;11549;50.852;3.816;2023-07-22T04:07:30;15.10;99.90
22765;DHT22;11549;50.852;3.816;2023-07-22T04:09:59;15.20;99.90
22765;DHT22;11549;50.852;3.816;2023-07-22T04:12:27;15.30;99.90
22765;DHT22;11549;50.852;3.816;2023-07-22T04:14:56;15.30;99.90
22765;DHT22;11549;50.852;3.816;2023-07-22T04:17:24;15.30;99.90
22765;DHT22;11549;50.852;3.816;2023-07-22T04:19:53;15.20;99.90
22765;DHT22;11549;50.852;3.816;2023-07-22T04:22:22;15.20;99.90
22765;DHT22;11549;50.852;3.816;2023-07-22T04:24:51;15.20;99.90
22765;DHT22;11549;50.852;3.816;2023-07-22T04:27:20;15.30;99.90
22765;DHT22;11549;50.852;3.816;2023-07-22T04:29:48;15.20;99.90
22765;DHT22;11549;50.852;3.816;2023-07-22T04:32:17;15.20;99.90
22765;DHT22;11549;50.852;3.816;2023-07-22T04:34:46;15.00;99.90
22765;DHT22;11549;50.852;3.816;2023-07-22T04:37:15;14.90;99.90
22765;DHT22;11549;50.852;3.816;2023-07-22T04:39:48;14.80;99.90
22765;DHT22;11549;50.852;3.816;2023-07-22T04:42:18;14.70;99.90
22765;DHT22;11549;50.852;3.816;2023-07-22T04:44:47;14.80;99.90
22765;DHT22;11549;50.852;3.816;2023-07-22T04:47:15;14.80;99.90
22765;DHT22;11549;50.852;3.816;2023-07-22T04:49:44;14.70;99.90
22765;DHT22;11549;50.852;3.816;2023-07-22T04:52:13;14.70;99.90
22765;DHT22;11549;50.852;3.816;2023-07-22T04:54:42;14.80;99.90
22765;DHT22;11549;50.852;3.816;2023-07-22T04:57:10;14.90;99.90
22765;DHT22;11549;50.852;3.816;2023-07-22T04:59:40;14.90;99.90
22765;DHT22;11549;50.852;3.816;2023-07-22T05:02:08;14.90;99.90
22765;DHT22;11549;50.852;3.816;2023-07-22T05:04:37;14.80;99.90
22765;DHT22;11549;50.852;3.816;2023-07-22T05:07:05;14.80;99.90
22765;DHT22;11549;50.852;3.816;2023-07-22T05:09:34;15.00;99.90
22765;DHT22;11549;50.852;3.816;2023-07-22T05:12:03;15.00;99.90
22765;DHT22;11549;50.852;3.816;2023-07-22T05:14:31;15.10;99.90
22765;DHT22;11549;50.852;3.816;2023-07-22T05:17:01;15.30;99.90
22765;DHT22;11549;50.852;3.816;2023-07-22T05:19:29;15.50;99.90
22765;DHT22;11549;50.852;3.816;2023-07-22T05:21:58;15.70;99.90
22765;DHT22;11549;50.852;3.816;2023-07-22T05:24:26;15.80;99.90
22765;DHT22;11549;50.852;3.816;2023-07-22T05:26:55;16.10;99.90
22765;DHT22;11549;50.852;3.816;2023-07-22T05:29:35;16.30;99.90
22765;DHT22;11549;50.852;3.816;2023-07-22T05:32:06;16.50;99.90
22765;DHT22;11549;50.852;3.816;2023-07-22T05:34:55;16.80;99.90
22765;DHT22;11549;50.852;3.816;2023-07-22T05:37:24;16.90;99.90
22765;DHT22;11549;50.852;3.816;2023-07-22T05:39:53;17.20;99.90
22765;DHT22;11549;50.852;3.816;2023-07-22T05:42:21;17.30;99.90
22765;DHT22;11549;50.852;3.816;2023-07-22T05:44:49;17.40;99.90
22765;DHT22;11549;50.852;3.816;2023-07-22T05:47:19;17.40;99.90
22765;DHT22;11549;50.852;3.816;2023-07-22T05:49:47;17.40;99.90
22765;DHT22;11549;50.852;3.816;2023-07-22T05:52:16;17.40;99.90
22765;DHT22;11549;50.852;3.816;2023-07-22T05:54:45;17.40;99.90
22765;DHT22;11549;50.852;3.816;2023-07-22T05:57:13;17.50;99.90
22765;DHT22;11549;50.852;3.816;2023-07-22T05:59:42;17.40;99.90
22765;DHT22;11549;50.852;3.816;2023-07-22T06:02:12;17.60;99.90
22765;DHT22;11549;50.852;3.816;2023-07-22T06:04:43;17.50;99.90
22765;DHT22;11549;50.852;3.816;2023-07-22T06:07:11;17.50;99.90
22765;DHT22;11549;50.852;3.816;2023-07-22T06:09:39;17.60;99.90
22765;DHT22;11549;50.852;3.816;2023-07-22T06:12:08;17.50;99.90
22765;DHT22;11549;50.852;3.816;2023-07-22T06:14:37;17.50;99.90
22765;DHT22;11549;50.852;3.816;2023-07-22T06:17:05;17.50;99.90
22765;DHT22;11549;50.852;3.816;2023-07-22T06:19:33;17.60;99.90
22765;DHT22;11549;50.852;3.816;2023-07-22T06:22:03;17.70;99.90
22765;DHT22;11549;50.852;3.816;2023-07-22T06:24:32;17.70;99.90
22765;DHT22;11549;50.852;3.816;2023-07-22T06:26:59;17.60;99.90
22765;DHT22;11549;50.852;3.816;2023-07-22T06:29:28;17.70;99.90
22765;DHT22;11549;50.852;3.816;2023-07-22T06:31:56;17.60;99.90
22765;DHT22;11549;50.852;3.816;2023-07-22T06:34:24;17.70;99.90
22765;DHT22;11549;50.852;3.816;2023-07-22T06:36:53;17.70;99.90
22765;DHT22;11549;50.852;3.816;2023-07-22T06:39:23;17.70;99.90
22765;DHT22;11549;50.852;3.816;2023-07-22T06:41:51;17.80;99.90
22765;DHT22;11549;50.852;3.816;2023-07-22T06:44:20;17.90;99.90
22765;DHT22;11549;50.852;3.816;2023-07-22T06:46:48;18.00;99.90
22765;DHT22;11549;50.852;3.816;2023-07-22T06:49:16;18.10;99.90
22765;DHT22;11549;50.852;3.816;2023-07-22T06:51:45;18.40;99.90
22765;DHT22;11549;50.852;3.816;2023-07-22T06:54:13;18.50;99.90
22765;DHT22;11549;50.852;3.816;2023-07-22T06:56:43;18.70;99.90
22765;DHT22;11549;50.852;3.816;2023-07-22T06:59:11;18.80;99.90
22765;DHT22;11549;50.852;3.816;2023-07-22T07:01:40;18.90;99.90
22765;DHT22;11549;50.852;3.816;2023-07-22T07:04:08;19.00;99.90
22765;DHT22;11549;50.852;3.816;2023-07-22T07:06:37;19.00;99.90
22765;DHT22;11549;50.852;3.816;2023-07-22T07:09:06;19.10;99.90
22765;DHT22;11549;50.852;3.816;2023-07-22T07:11:34;19.10;99.90
22765;DHT22;11549;50.852;3.816;2023-07-22T07:14:03;19.20;99.90
22765;DHT22;11549;50.852;3.816;2023-07-22T07:16:32;19.30;99.90
22765;DHT22;11549;50.852;3.816;2023-07-22T07:19:01;19.40;99.90
22765;DHT22;11549;50.852;3.816;2023-07-22T07:21:29;19.40;99.90
22765;DHT22;11549;50.852;3.816;2023-07-22T07:23:58;19.60;99.90
22765;DHT22;11549;50.852;3.816;2023-07-22T07:26:26;19.60;99.90
22765;DHT22;11549;50.852;3.816;2023-07-22T07:28:55;19.60;99.90
22765;DHT22;11549;50.852;3.816;2023-07-22T07:31:25;19.70;99.90
22765;DHT22;11549;50.852;3.816;2023-07-22T07:33:56;19.70;99.90
22765;DHT22;11549;50.852;3.816;2023-07-22T07:36:25;19.80;99.90
22765;DHT22;11549;50.852;3.816;2023-07-22T07:38:53;19.80;99.90
22765;DHT22;11549;50.852;3.816;2023-07-22T07:41:22;19.70;99.90
22765;DHT22;11549;50.852;3.816;2023-07-22T07:43:50;19.40;99.90
22765;DHT22;11549;50.852;3.816;2023-07-22T07:46:24;19.40;99.90
22765;DHT22;11549;50.852;3.816;2023-07-22T07:48:54;19.40;99.90
22765;DHT22;11549;50.852;3.816;2023-07-22T07:51:24;19.70;99.90
22765;DHT22;11549;50.852;3.816;2023-07-22T07:53:54;19.90;99.90
22765;DHT22;11549;50.852;3.816;2023-07-22T07:56:23;20.00;99.90
22765;DHT22;11549;50.852;3.816;2023-07-22T07:58:53;20.00;99.90
22765;DHT22;11549;50.852;3.816;2023-07-22T08:01:21;20.10;99.90
22765;DHT22;11549;50.852;3.816;2023-07-22T08:03:51;20.20;99.90
22765;DHT22;11549;50.852;3.816;2023-07-22T08:06:19;20.20;99.90
22765;DHT22;11549;50.852;3.816;2023-07-22T08:08:48;20.10;99.90
22765;DHT22;11549;50.852;3.816;2023-07-22T08:11:16;20.40;99.90
22765;DHT22;11549;50.852;3.816;2023-07-22T08:13:45;20.70;99.90
22765;DHT22;11549;50.852;3.816;2023-07-22T08:16:14;20.90;99.90
22765;DHT22;11549;50.852;3.816;2023-07-22T08:18:42;20.90;99.90
22765;DHT22;11549;50.852;3.816;2023-07-22T08:21:15;20.70;99.90
22765;DHT22;11549;50.852;3.816;2023-07-22T08:23:44;20.90;99.90
22765;DHT22;11549;50.852;3.816;2023-07-22T08:26:13;21.00;99.90
22765;DHT22;11549;50.852;3.816;2023-07-22T08:28:45;21.10;99.90
22765;DHT22;11549;50.852;3.816;2023-07-22T08:31:13;21.30;99.90
22765;DHT22;11549;50.852;3.816;2023-07-22T08:33:42;21.50;99.90
22765;DHT22;11549;50.852;3.816;2023-07-22T08:36:10;21.90;99.90
22765;DHT22;11549;50.852;3.816;2023-07-22T08:38:40;22.20;99.90
22765;DHT22;11549;50.852;3.816;2023-07-22T08:41:09;22.40;99.90
22765;DHT22;11549;50.852;3.816;2023-07-22T08:43:40;22.50;99.90
22765;DHT22;11549;50.852;3.816;2023-07-22T08:46:09;22.60;99.90
22765;DHT22;11549;50.852;3.816;2023-07-22T08:48:41;22.70;99.90
22765;DHT22;11549;50.852;3.816;2023-07-22T08:51:15;22.60;99.90
22765;DHT22;11549;50.852;3.816;2023-07-22T08:53:47;23.00;99.90
22765;DHT22;11549;50.852;3.816;2023-07-22T08:56:35;23.40;99.90
22765;DHT22;11549;50.852;3.816;2023-07-22T08:59:06;23.50;99.90
22765;DHT22;11549;50.852;3.816;2023-07-22T09:01:34;23.50;99.90
22765;DHT22;11549;50.852;3.816;2023-07-22T09:04:04;23.70;99.90
22765;DHT22;11549;50.852;3.816;2023-07-22T09:06:34;23.70;99.90
22765;DHT22;11549;50.852;3.816;2023-07-22T09:09:04;23.70;99.90
22765;DHT22;11549;50.852;3.816;2023-07-22T09:11:36;23.60;99.90
22765;DHT22;11549;50.852;3.816;2023-07-22T09:14:04;23.50;99.90
22765;DHT22;11549;50.852;3.816;2023-07-22T09:16:33;23.30;99.90
22765;DHT22;11549;50.852;3.816;2023-07-22T09:19:03;23.20;99.90
22765;DHT22;11549;50.852;3.816;2023-07-22T09:21:32;22.90;99.90
22765;DHT22;11549;50.852;3.816;2023-07-22T09:24:20;23.00;99.90
22765;DHT22;11549;50.852;3.816;2023-07-22T09:26:49;23.00;99.90
22765;DHT22;11549;50.852;3.816;2023-07-22T09:29:17;23.10;99.90
22765;DHT22;11549;50.852;3.816;2023-07-22T09:31:50;23.40;99.90
22765;DHT22;11549;50.852;3.816;2023-07-22T09:34:19;23.60;99.90
22765;DHT22;11549;50.852;3.816;2023-07-22T09:36:54;23.80;99.90
22765;DHT22;11549;50.852;3.816;2023-07-22T09:39:24;24.30;99.90
22765;DHT22;11549;50.852;3.816;2023-07-22T09:41:52;24.60;99.90
22765;DHT22;11549;50.852;3.816;2023-07-22T09:44:21;25.00;99.90
22765;DHT22;11549;50.852;3.816;2023-07-22T09:46:49;25.20;99.90
22765;DHT22;11549;50.852;3.816;2023-07-22T09:49:18;25.40;99.90
22765;DHT22;11549;50.852;3.816;2023-07-22T09:51:51;25.50;99.90
22765;DHT22;11549;50.852;3.816;2023-07-22T09:54:30;25.50;99.90
22765;DHT22;11549;50.852;3.816;2023-07-22T09:56:59;25.50;99.90
22765;DHT22;11549;50.852;3.816;2023-07-22T09:59:29;25.50;99.90
22765;DHT22;11549;50.852;3.816;2023-07-22T10:01:59;25.70;99.30
22765;DHT22;11549;50.852;3.816;2023-07-22T10:04:33;25.80;98.00
22765;DHT22;11549;50.852;3.816;2023-07-22T10:07:03;26.00;97.40
22765;DHT22;11549;50.852;3.816;2023-07-22T10:09:37;26.20;97.10
22765;DHT22;11549;50.852;3.816;2023-07-22T10:12:07;26.30;97.60
22765;DHT22;11549;50.852;3.816;2023-07-22T10:14:36;26.50;96.80
22765;DHT22;11549;50.852;3.816;2023-07-22T10:17:06;26.80;96.80
22765;DHT22;11549;50.852;3.816;2023-07-22T10:19:36;26.90;97.70
22765;DHT22;11549;50.852;3.816;2023-07-22T10:22:06;27.00;94.70
22765;DHT22;11549;50.852;3.816;2023-07-22T10:24:41;26.80;95.30
22765;DHT22;11549;50.852;3.816;2023-07-22T10:27:09;26.50;95.40
22765;DHT22;11549;50.852;3.816;2023-07-22T10:29:39;26.60;95.80
22765;DHT22;11549;50.852;3.816;2023-07-22T10:32:08;26.60;94.60
22765;DHT22;11549;50.852;3.816;2023-07-22T10:34:36;26.60;95.10
22765;DHT22;11549;50.852;3.816;2023-07-22T10:37:04;26.40;95.50
22765;DHT22;11549;50.852;3.816;2023-07-22T10:39:33;26.50;95.10
22765;DHT22;11549;50.852;3.816;2023-07-22T10:42:04;26.60;95.20
22765;DHT22;11549;50.852;3.816;2023-07-22T10:44:33;26.50;93.90
22765;DHT22;11549;50.852;3.816;2023-07-22T10:47:01;26.60;94.30
22765;DHT22;11549;50.852;3.816;2023-07-22T10:49:45;26.40;93.80
22765;DHT22;11549;50.852;3.816;2023-07-22T10:52:15;26.30;95.70
22765;DHT22;11549;50.852;3.816;2023-07-22T10:55:04;26.40;95.30
22765;DHT22;11549;50.852;3.816;2023-07-22T10:57:50;26.70;93.50
22765;DHT22;11549;50.852;3.816;2023-07-22T11:00:20;27.10;93.50
22765;DHT22;11549;50.852;3.816;2023-07-22T11:03:10;27.20;92.00
22765;DHT22;11549;50.852;3.816;2023-07-22T11:05:50;27.30;92.40
22765;DHT22;11549;50.852;3.816;2023-07-22T11:08:35;27.50;91.50
22765;DHT22;11549;50.852;3.816;2023-07-22T11:11:04;27.50;90.00
22765;DHT22;11549;50.852;3.816;2023-07-22T11:13:38;27.30;90.30
22765;DHT22;11549;50.852;3.816;2023-07-22T11:16:11;27.50;89.10
22765;DHT22;11549;50.852;3.816;2023-07-22T11:18:40;27.40;90.30
22765;DHT22;11549;50.852;3.816;2023-07-22T11:21:10;27.60;91.50
22765;DHT22;11549;50.852;3.816;2023-07-22T11:23:38;27.70;88.50
22765;DHT22;11549;50.852;3.816;2023-07-22T11:26:07;27.70;90.50
22765;DHT22;11549;50.852;3.816;2023-07-22T11:28:37;27.80;90.10
22765;DHT22;11549;50.852;3.816;2023-07-22T11:31:05;27.80;88.50
22765;DHT22;11549;50.852;3.816;2023-07-22T11:33:40;27.70;88.80
22765;DHT22;11549;50.852;3.816;2023-07-22T11:36:10;28.00;88.70
22765;DHT22;11549;50.852;3.816;2023-07-22T11:38:38;28.20;86.10
22765;DHT22;11549;50.852;3.816;2023-07-22T11:41:09;28.50;88.50
22765;DHT22;11549;50.852;3.816;2023-07-22T11:43:39;28.30;85.10
22765;DHT22;11549;50.852;3.816;2023-07-22T11:46:08;28.40;85.50
22765;DHT22;11549;50.852;3.816;2023-07-22T11:48:37;28.60;85.20
22765;DHT22;11549;50.852;3.816;2023-07-22T11:51:07;28.80;83.30
22765;DHT22;11549;50.852;3.816;2023-07-22T11:53:35;28.60;81.60
22765;DHT22;11549;50.852;3.816;2023-07-22T11:56:05;28.10;80.10
22765;DHT22;11549;50.852;3.816;2023-07-22T11:58:33;27.60;84.70
22765;DHT22;11549;50.852;3.816;2023-07-22T12:01:06;27.30;86.90
22765;DHT22;11549;50.852;3.816;2023-07-22T12:03:35;27.40;83.90
22765;DHT22;11549;50.852;3.816;2023-07-22T12:06:04;27.30;87.30
22765;DHT22;11549;50.852;3.816;2023-07-22T12:08:34;27.30;85.80
22765;DHT22;11549;50.852;3.816;2023-07-22T12:11:03;26.90;86.80
22765;DHT22;11549;50.852;3.816;2023-07-22T12:13:36;26.80;88.60
22765;DHT22;11549;50.852;3.816;2023-07-22T12:16:06;26.50;87.50
22765;DHT22;11549;50.852;3.816;2023-07-22T12:18:44;25.90;86.10
22765;DHT22;11549;50.852;3.816;2023-07-22T12:21:13;25.40;89.70
22765;DHT22;11549;50.852;3.816;2023-07-22T12:23:42;25.00;90.90
22765;DHT22;11549;50.852;3.816;2023-07-22T12:26:11;24.50;93.50
22765;DHT22;11549;50.852;3.816;2023-07-22T12:28:39;24.30;95.30
22765;DHT22;11549;50.852;3.816;2023-07-22T12:31:09;23.70;97.60
22765;DHT22;11549;50.852;3.816;2023-07-22T12:33:37;23.50;98.30
22765;DHT22;11549;50.852;3.816;2023-07-22T12:36:06;23.50;98.60
22765;DHT22;11549;50.852;3.816;2023-07-22T12:38:35;23.40;99.50
22765;DHT22;11549;50.852;3.816;2023-07-22T12:41:03;23.40;99.90
22765;DHT22;11549;50.852;3.816;2023-07-22T12:43:32;23.50;99.60
22765;DHT22;11549;50.852;3.816;2023-07-22T12:46:00;23.40;99.90
22765;DHT22;11549;50.852;3.816;2023-07-22T12:48:30;23.60;99.90
22765;DHT22;11549;50.852;3.816;2023-07-22T12:50:58;23.80;99.90
22765;DHT22;11549;50.852;3.816;2023-07-22T12:53:28;24.00;99.90
22765;DHT22;11549;50.852;3.816;2023-07-22T12:55:58;24.00;99.70
22765;DHT22;11549;50.852;3.816;2023-07-22T12:58:29;24.00;99.90
22765;DHT22;11549;50.852;3.816;2023-07-22T13:00:58;24.20;99.90
22765;DHT22;11549;50.852;3.816;2023-07-22T13:03:26;24.30;99.90
22765;DHT22;11549;50.852;3.816;2023-07-22T13:05:56;24.30;99.50
22765;DHT22;11549;50.852;3.816;2023-07-22T13:08:24;24.30;99.90
22765;DHT22;11549;50.852;3.816;2023-07-22T13:10:52;24.20;99.80
22765;DHT22;11549;50.852;3.816;2023-07-22T13:13:21;23.90;99.90
22765;DHT22;11549;50.852;3.816;2023-07-22T13:15:49;23.80;99.90
22765;DHT22;11549;50.852;3.816;2023-07-22T13:18:17;23.60;99.90
22765;DHT22;11549;50.852;3.816;2023-07-22T13:20:46;23.50;99.90
22765;DHT22;11549;50.852;3.816;2023-07-22T13:23:15;23.40;99.90
22765;DHT22;11549;50.852;3.816;2023-07-22T13:25:44;23.00;99.90
22765;DHT22;11549;50.852;3.816;2023-07-22T13:28:12;22.80;99.90
22765;DHT22;11549;50.852;3.816;2023-07-22T13:30:41;22.50;99.90
22765;DHT22;11549;50.852;3.816;2023-07-22T13:33:09;22.40;99.90
22765;DHT22;11549;50.852;3.816;2023-07-22T13:35:38;22.30;99.90
22765;DHT22;11549;50.852;3.816;2023-07-22T13:38:07;22.20;99.90
22765;DHT22;11549;50.852;3.816;2023-07-22T13:40:37;22.10;99.90
22765;DHT22;11549;50.852;3.816;2023-07-22T13:43:05;22.00;99.90
22765;DHT22;11549;50.852;3.816;2023-07-22T13:45:34;22.00;99.90
22765;DHT22;11549;50.852;3.816;2023-07-22T13:48:02;21.90;99.90
22765;DHT22;11549;50.852;3.816;2023-07-22T13:50:31;21.70;99.90
22765;DHT22;11549;50.852;3.816;2023-07-22T13:53:03;21.70;99.90
22765;DHT22;11549;50.852;3.816;2023-07-22T13:55:31;21.80;99.90
22765;DHT22;11549;50.852;3.816;2023-07-22T13:58:01;21.80;99.90
22765;DHT22;11549;50.852;3.816;2023-07-22T14:00:29;21.90;99.90
22765;DHT22;11549;50.852;3.816;2023-07-22T14:02:57;22.00;99.90
22765;DHT22;11549;50.852;3.816;2023-07-22T14:05:26;22.10;99.90
22765;DHT22;11549;50.852;3.816;2023-07-22T14:07:55;22.20;99.90
22765;DHT22;11549;50.852;3.816;2023-07-22T14:10:23;22.30;99.90
22765;DHT22;11549;50.852;3.816;2023-07-22T14:12:51;22.60;99.90
22765;DHT22;11549;50.852;3.816;2023-07-22T14:15:21;22.80;99.90
22765;DHT22;11549;50.852;3.816;2023-07-22T14:17:49;23.00;99.90
22765;DHT22;11549;50.852;3.816;2023-07-22T14:20:18;23.10;99.90
22765;DHT22;11549;50.852;3.816;2023-07-22T14:22:47;23.30;99.90
22765;DHT22;11549;50.852;3.816;2023-07-22T14:25:17;23.50;99.90
22765;DHT22;11549;50.852;3.816;2023-07-22T14:27:46;23.70;99.90
22765;DHT22;11549;50.852;3.816;2023-07-22T14:30:14;23.70;99.90
22765;DHT22;11549;50.852;3.816;2023-07-22T14:32:44;23.90;99.90
22765;DHT22;11549;50.852;3.816;2023-07-22T14:35:13;24.10;99.80
22765;DHT22;11549;50.852;3.816;2023-07-22T14:37:41;24.40;99.60
22765;DHT22;11549;50.852;3.816;2023-07-22T14:40:10;24.60;99.90
22765;DHT22;11549;50.852;3.816;2023-07-22T14:42:38;24.90;99.20
22765;DHT22;11549;50.852;3.816;2023-07-22T14:45:07;24.80;98.70
22765;DHT22;11549;50.852;3.816;2023-07-22T14:47:36;24.80;98.20
22765;DHT22;11549;50.852;3.816;2023-07-22T14:50:07;24.80;99.00
22765;DHT22;11549;50.852;3.816;2023-07-22T14:52:37;24.80;98.10
22765;DHT22;11549;50.852;3.816;2023-07-22T14:55:06;24.60;97.00
22765;DHT22;11549;50.852;3.816;2023-07-22T14:57:36;24.40;97.40
22765;DHT22;11549;50.852;3.816;2023-07-22T15:00:06;24.30;97.90
22765;DHT22;11549;50.852;3.816;2023-07-22T15:02:34;24.10;98.10
22765;DHT22;11549;50.852;3.816;2023-07-22T15:05:03;24.00;98.50
22765;DHT22;11549;50.852;3.816;2023-07-22T15:07:33;23.90;98.50
22765;DHT22;11549;50.852;3.816;2023-07-22T15:10:02;23.80;98.70
22765;DHT22;11549;50.852;3.816;2023-07-22T15:12:31;23.50;98.80
22765;DHT22;11549;50.852;3.816;2023-07-22T15:15:00;23.40;98.60
22765;DHT22;11549;50.852;3.816;2023-07-22T15:17:28;23.30;99.30
22765;DHT22;11549;50.852;3.816;2023-07-22T15:19:58;23.10;99.80
22765;DHT22;11549;50.852;3.816;2023-07-22T15:22:27;23.00;99.90
22765;DHT22;11549;50.852;3.816;2023-07-22T15:24:56;23.00;99.80
22765;DHT22;11549;50.852;3.816;2023-07-22T15:27:25;23.00;99.90
22765;DHT22;11549;50.852;3.816;2023-07-22T15:29:53;22.80;99.90
22765;DHT22;11549;50.852;3.816;2023-07-22T15:32:21;22.70;99.90
22765;DHT22;11549;50.852;3.816;2023-07-22T15:34:50;22.60;99.90
22765;DHT22;11549;50.852;3.816;2023-07-22T15:37:19;22.60;99.90
22765;DHT22;11549;50.852;3.816;2023-07-22T15:39:47;22.60;99.90
22765;DHT22;11549;50.852;3.816;2023-07-22T15:42:17;22.50;99.90
22765;DHT22;11549;50.852;3.816;2023-07-22T15:44:45;22.60;99.90